Kalama, Washington
Current Conditions -  °F | °C
As of 8:55 PM on Wednesday 22 Oct 2014 (Local Time) from KKLS Reporting Station
Broken Clouds Broken Clouds  
Wind Chill: 57°   Ceiling: 3500
Heat Index: 57°   Visibility: 10mi
Dew Point: 54°   Wind: 15mph
Humidity: 88%   Direction: 150°SSE
Pressure: 29.73"   Gusts: 18mph
Location:  46.01°N, 122.84°W
Report Text: KKLS 230355Z AUTO 15013G16KT 10SM FEW010 SCT017 BKN035 14/12 A2973 RMK AO1 P0004
Loading
Personal Weather Stations






























Interactive Weather Map New forecast layout! Learn more

10-Day Weather Forecast

Advertisements
Track Severe Weather on mobile